Time;durP1;ratioP1;P1;durP2;ratioP2;P2;SDS_P1;SDS_P2;PMS_P1;PMS_P2;Temp;Humidity;BMP_temperature;BMP_pressure;BME280_temperature;BME280_humidity;BME280_pressure;Samples;Min_cycle;Max_cycle;Signal;HPM_P1;HPM_P2
2024/01/24 00:02:15;;;;;;;4.82;2.90;;;;;;;16.02;65.57;101265.44;4993092;28;97613;-69
2024/01/24 00:04:42;;;;;;;3.65;2.80;;;;;;;16.05;65.27;101257.06;4999075;28;97567;-71
2024/01/24 00:07:11;;;;;;;5.03;2.60;;;;;;;16.07;65.29;101253.22;5002692;28;96832;-72
2024/01/24 00:09:38;;;;;;;7.35;3.00;;;;;;;16.10;65.36;101273.75;4992936;28;97764;-71
2024/01/24 00:12:05;;;;;;;7.25;2.95;;;;;;;16.12;65.18;101255.53;4997729;28;97744;-72
2024/01/24 00:14:32;;;;;;;4.28;2.42;;;;;;;16.14;65.00;101239.97;4984306;28;100307;-73
2024/01/24 00:16:59;;;;;;;4.68;2.85;;;;;;;16.14;65.01;101253.53;4997551;28;97559;-72
2024/01/24 00:19:26;;;;;;;3.28;2.45;;;;;;;16.15;65.11;101245.28;4995607;28;96863;-72
2024/01/24 00:21:53;;;;;;;3.80;2.13;;;;;;;16.17;64.97;101253.25;4996934;28;97561;-72
2024/01/24 00:24:19;;;;;;;3.25;2.33;;;;;;;16.17;64.63;101251.41;4997591;28;97476;-71
2024/01/24 00:26:46;;;;;;;3.58;1.73;;;;;;;16.17;64.71;101239.72;4991279;28;99946;-72
2024/01/24 00:29:13;;;;;;;6.35;2.25;;;;;;;16.19;64.82;101233.16;5001161;28;97544;-71
2024/01/24 00:31:49;;;;;;;3.53;2.15;;;;;;;16.20;64.67;101232.16;4996166;28;97663;-71
2024/01/24 00:34:16;;;;;;;6.63;1.98;;;;;;;16.22;64.47;101256.44;5006549;28;97536;-71
2024/01/24 00:36:44;;;;;;;3.25;1.77;;;;;;;16.25;64.79;101239.91;5006146;27;97155;-71
2024/01/24 00:39:10;;;;;;;3.55;1.83;;;;;;;16.28;64.67;101227.94;5007938;28;97270;-71
2024/01/24 00:41:41;;;;;;;5.72;1.70;;;;;;;16.27;64.74;101237.91;5008189;28;97035;-71
2024/01/24 00:44:09;;;;;;;1.90;1.58;;;;;;;16.29;64.72;101237.78;4998279;28;97577;-70
2024/01/24 00:46:36;;;;;;;2.78;1.58;;;;;;;16.28;64.79;101231.50;4986527;28;98034;-72
2024/01/24 00:49:03;;;;;;;4.53;1.60;;;;;;;16.27;64.59;101224.34;5009916;28;97350;-71
2024/01/24 00:51:30;;;;;;;2.38;1.75;;;;;;;16.28;64.58;101236.06;5009340;27;98090;-71
2024/01/24 00:53:56;;;;;;;1.77;1.35;;;;;;;16.29;64.29;101237.78;5004186;28;97477;-72
2024/01/24 00:56:23;;;;;;;3.55;1.70;;;;;;;16.27;64.62;101231.63;5006094;28;97605;-72
2024/01/24 00:58:49;;;;;;;2.22;1.40;;;;;;;16.27;64.31;101232.50;5001844;28;97287;-72
2024/01/24 01:01:16;;;;;;;2.00;1.35;;;;;;;16.26;64.55;101249.75;5008366;28;97670;-72
2024/01/24 01:03:44;;;;;;;2.28;1.67;;;;;;;16.25;64.68;101252.59;5002152;28;98190;-71
2024/01/24 01:06:11;;;;;;;5.72;1.85;;;;;;;16.22;64.71;101267.25;5004694;28;97168;-71
2024/01/24 01:08:37;;;;;;;2.30;1.40;;;;;;;16.20;64.61;101255.72;4995214;28;99037;-71
2024/01/24 01:11:05;;;;;;;1.83;1.40;;;;;;;16.19;64.70;101251.28;5008711;28;97826;-71
2024/01/24 01:13:34;;;;;;;4.53;1.50;;;;;;;16.18;64.82;101241.44;5008002;28;99993;-72
2024/01/24 01:16:02;;;;;;;1.88;1.65;;;;;;;16.16;64.91;101240.72;5003290;28;96915;-71
2024/01/24 01:18:28;;;;;;;1.45;1.30;;;;;;;16.12;64.83;101236.56;5005566;28;97003;-71
2024/01/24 01:20:56;;;;;;;2.22;1.30;;;;;;;16.10;64.52;101227.69;5009715;28;97608;-71
2024/01/24 01:23:23;;;;;;;1.60;1.30;;;;;;;16.06;64.99;101234.38;5007022;28;97780;-72
2024/01/24 01:25:50;;;;;;;3.00;1.45;;;;;;;16.03;64.95;101237.38;5005679;28;97272;-71
2024/01/24 01:28:17;;;;;;;1.80;1.30;;;;;;;16.00;64.94;101245.75;5000934;28;98339;-73
2024/01/24 01:30:44;;;;;;;1.50;1.40;;;;;;;15.97;65.01;101240.59;5005162;28;98663;-72
2024/01/24 01:33:11;;;;;;;2.58;1.35;;;;;;;15.94;64.87;101257.13;5001191;28;98060;-71
2024/01/24 01:35:38;;;;;;;1.65;1.40;;;;;;;15.89;65.40;101257.53;5012264;27;97241;-72
2024/01/24 01:38:04;;;;;;;1.98;1.30;;;;;;;15.85;65.23;101264.22;5004143;28;97142;-72
2024/01/24 01:40:31;;;;;;;2.50;1.98;;;;;;;15.82;65.23;101257.22;5007088;28;97800;-73
2024/01/24 01:42:58;;;;;;;2.10;1.88;;;;;;;15.80;65.37;101261.03;4998054;28;97666;-73
2024/01/24 01:45:24;;;;;;;2.65;1.30;;;;;;;15.77;65.47;101259.47;5005431;28;97131;-74
2024/01/24 01:47:51;;;;;;;2.25;1.70;;;;;;;15.75;65.43;101249.75;5006284;28;98553;-71
2024/01/24 01:50:19;;;;;;;1.45;1.35;;;;;;;15.73;65.78;101271.53;5009627;27;97982;-75
2024/01/24 01:52:46;;;;;;;2.13;1.45;;;;;;;15.71;65.59;101246.44;5011954;28;97543;-75
2024/01/24 01:55:14;;;;;;;1.38;1.27;;;;;;;15.69;66.05;101261.09;5004787;28;98118;-74
2024/01/24 01:57:44;;;;;;;2.42;1.52;;;;;;;15.67;66.18;101254.97;5003551;28;97568;-72
2024/01/24 02:00:19;;;;;;;2.60;1.50;;;;;;;15.66;65.96;101250.53;5003631;28;98569;-72
2024/01/24 02:02:49;;;;;;;1.50;1.40;;;;;;;15.65;66.38;101249.69;5003110;28;98890;-73
2024/01/24 02:05:17;;;;;;;1.77;1.67;;;;;;;15.65;66.33;101219.03;5005287;28;97702;-73
2024/01/24 02:07:45;;;;;;;1.73;1.63;;;;;;;15.64;66.16;101226.31;5010568;27;97144;-72
2024/01/24 02:10:12;;;;;;;1.83;1.58;;;;;;;15.64;66.46;101229.00;5011012;28;98633;-72
2024/01/24 02:12:40;;;;;;;2.22;1.65;;;;;;;15.64;66.34;101229.00;5011961;28;97728;-74
2024/01/24 02:15:08;;;;;;;1.80;1.70;;;;;;;15.64;66.33;101237.13;5005519;28;97172;-72
2024/01/24 02:17:35;;;;;;;1.60;1.50;;;;;;;15.65;66.58;101241.56;5012044;28;97105;-72
2024/01/24 02:20:03;;;;;;;1.40;1.30;;;;;;;15.65;66.26;101246.97;4992148;28;100276;-74
2024/01/24 02:22:30;;;;;;;1.40;1.30;;;;;;;15.66;66.25;101221.63;5009371;28;97402;-74
2024/01/24 02:24:56;;;;;;;1.40;1.30;;;;;;;15.66;66.52;101235.16;5011182;28;97236;-72
2024/01/24 02:27:23;;;;;;;1.20;1.10;;;;;;;15.67;66.41;101244.13;5010783;27;97377;-73
2024/01/24 02:29:50;;;;;;;1.05;0.95;;;;;;;15.67;66.98;101236.88;5003879;28;99053;-72
2024/01/24 02:32:16;;;;;;;1.50;1.10;;;;;;;15.70;66.93;101224.91;5009638;28;98267;-73
2024/01/24 02:34:44;;;;;;;0.80;0.80;;;;;;;15.71;67.00;101268.09;5011119;28;98088;-72
2024/01/24 02:37:11;;;;;;;1.10;1.00;;;;;;;15.73;66.69;101233.63;5014221;28;97138;-72
2024/01/24 02:39:37;;;;;;;0.90;0.80;;;;;;;15.76;66.66;101237.94;5003029;28;100158;-72
2024/01/24 02:42:04;;;;;;;1.80;1.00;;;;;;;15.77;66.99;101229.66;5005025;28;100536;-72
2024/01/24 02:44:31;;;;;;;1.08;0.90;;;;;;;15.80;66.93;101240.22;5010850;28;97041;-73
2024/01/24 02:46:57;;;;;;;1.63;1.25;;;;;;;15.83;66.86;101271.59;5009542;28;97137;-71
2024/01/24 02:49:24;;;;;;;1.58;1.23;;;;;;;15.84;66.91;101241.69;5010531;28;98863;-73
2024/01/24 02:51:51;;;;;;;1.40;1.30;;;;;;;15.86;66.71;101238.84;5007865;27;97523;-73
2024/01/24 02:54:18;;;;;;;1.45;1.20;;;;;;;15.88;66.58;101216.03;5009532;27;97184;-73
2024/01/24 02:56:44;;;;;;;2.95;1.48;;;;;;;15.91;66.47;101298.03;5012084;28;96890;-72
2024/01/24 02:59:11;;;;;;;1.55;1.20;;;;;;;15.93;66.45;101280.66;5009106;28;97619;-71
2024/01/24 03:01:39;;;;;;;3.28;1.48;;;;;;;15.96;66.35;101238.91;5006753;28;97603;-73
2024/01/24 03:04:07;;;;;;;3.47;1.20;;;;;;;15.98;66.47;101245.03;5011054;28;97197;-71
2024/01/24 03:06:33;;;;;;;1.52;1.20;;;;;;;15.99;66.30;101261.16;5015712;28;97471;-71
2024/01/24 03:09:01;;;;;;;2.90;1.42;;;;;;;16.02;65.97;101276.28;5009172;27;97727;-73
2024/01/24 03:11:28;;;;;;;2.75;1.50;;;;;;;16.03;65.95;101280.72;5007085;28;100372;-72
2024/01/24 03:13:55;;;;;;;3.30;1.50;;;;;;;16.03;65.60;101256.31;5007524;28;97457;-73
2024/01/24 03:16:21;;;;;;;3.10;1.50;;;;;;;16.02;65.71;101279.84;5007596;28;97720;-71
2024/01/24 03:18:48;;;;;;;2.85;1.38;;;;;;;16.02;65.74;101290.69;5008072;28;98375;-72
2024/01/24 03:21:17;;;;;;;2.83;1.33;;;;;;;16.00;65.46;101300.81;5002058;28;98416;-73
2024/01/24 03:23:45;;;;;;;3.92;1.25;;;;;;;16.00;65.18;101287.25;5010515;28;97059;-72
2024/01/24 03:26:14;;;;;;;4.82;1.20;;;;;;;16.00;64.77;101276.41;5004202;28;98407;-72
2024/01/24 03:28:41;;;;;;;3.17;1.30;;;;;;;15.99;64.44;101290.97;5006396;27;97724;-73
2024/01/24 03:31:07;;;;;;;4.03;1.30;;;;;;;15.98;64.52;101315.47;5009028;28;97569;-72
2024/01/24 03:33:36;;;;;;;3.55;1.10;;;;;;;15.98;64.32;101288.38;5004710;28;97682;-71
2024/01/24 03:36:03;;;;;;;4.80;1.27;;;;;;;15.97;64.33;101357.09;5002714;28;97490;-72
2024/01/24 03:38:30;;;;;;;2.38;1.08;;;;;;;15.97;63.93;101313.75;5008546;28;97528;-72
2024/01/24 03:40:57;;;;;;;4.57;1.65;;;;;;;15.95;63.75;101323.88;5006034;28;98874;-71
2024/01/24 03:43:23;;;;;;;5.88;1.50;;;;;;;15.94;63.64;101306.75;5005938;28;97758;-72
2024/01/24 03:45:50;;;;;;;5.55;1.63;;;;;;;15.93;63.64;101355.63;5005086;28;97021;-71
2024/01/24 03:48:17;;;;;;;7.63;1.63;;;;;;;15.91;63.48;101315.13;5010273;28;97765;-71
2024/01/24 03:50:44;;;;;;;11.57;1.83;;;;;;;15.88;63.33;101300.00;5011442;28;98346;-71
2024/01/24 03:53:11;;;;;;;6.68;2.13;;;;;;;15.86;63.30;101302.00;5010916;28;97450;-71
2024/01/24 03:55:37;;;;;;;7.40;2.30;;;;;;;15.85;63.23;101311.09;5006276;28;97371;-71
2024/01/24 03:58:04;;;;;;;10.13;2.65;;;;;;;15.82;62.90;101322.22;5011491;28;98216;-72
2024/01/24 04:00:31;;;;;;;9.38;2.80;;;;;;;15.80;63.34;101332.31;5005572;28;97846;-71
2024/01/24 04:02:57;;;;;;;12.63;2.90;;;;;;;15.78;63.35;101301.78;5008605;28;96913;-72
2024/01/24 04:05:24;;;;;;;9.85;2.85;;;;;;;15.76;63.09;101311.91;5004513;28;98506;-70
2024/01/24 04:07:51;;;;;;;12.70;3.38;;;;;;;15.71;62.77;101292.47;5010913;28;98063;-71
2024/01/24 04:10:18;;;;;;;17.88;4.28;;;;;;;15.69;62.67;101316.13;4998444;28;97570;-71
2024/01/24 04:12:44;;;;;;;12.30;3.45;;;;;;;15.68;62.67;101311.69;5010713;28;97051;-71
2024/01/24 04:15:11;;;;;;;12.68;3.65;;;;;;;15.64;62.29;101299.41;5005932;28;97123;-70
2024/01/24 04:17:38;;;;;;;16.83;4.20;;;;;;;15.60;62.18;101308.75;5006610;28;98882;-72
2024/01/24 04:20:06;;;;;;;13.55;3.55;;;;;;;15.55;61.72;101319.94;5003529;28;97645;-71
2024/01/24 04:22:32;;;;;;;12.07;4.25;;;;;;;15.52;61.70;101322.91;5007902;28;97322;-71
2024/01/24 04:25:00;;;;;;;17.05;4.15;;;;;;;15.48;61.78;101323.28;5006323;28;97247;-70
2024/01/24 04:27:27;;;;;;;17.83;4.20;;;;;;;15.45;61.41;101310.88;5007438;28;98385;-70
2024/01/24 04:29:54;;;;;;;12.45;4.28;;;;;;;15.42;61.44;101292.19;5006378;28;101081;-72
2024/01/24 04:32:21;;;;;;;22.70;5.32;;;;;;;15.39;61.41;101297.84;5011058;28;96977;-70
2024/01/24 04:34:47;;;;;;;13.77;4.20;;;;;;;15.36;61.25;101292.69;5000797;28;97776;-70
2024/01/24 04:37:14;;;;;;;14.68;5.50;;;;;;;15.33;61.53;101332.69;5008678;28;97298;-71
2024/01/24 04:39:41;;;;;;;20.27;4.78;;;;;;;15.30;61.18;101311.31;5005965;28;97503;-70
2024/01/24 04:42:07;;;;;;;20.05;5.38;;;;;;;15.27;61.28;101340.34;5009711;28;97159;-71
2024/01/24 04:44:42;;;;;;;15.00;5.28;;;;;;;15.26;60.81;101343.16;5007076;28;96994;-71
2024/01/24 04:47:09;;;;;;;20.08;5.88;;;;;;;15.23;61.14;101341.56;5006169;28;101068;-71
2024/01/24 04:49:36;;;;;;;21.50;5.22;;;;;;;15.21;60.95;101340.84;5009216;27;97851;-72
2024/01/24 04:52:11;;;;;;;23.63;6.00;;;;;;;15.20;60.75;101338.25;5004935;28;97676;-71
2024/01/24 04:54:38;;;;;;;19.38;5.68;;;;;;;15.18;60.77;101351.06;5010169;28;98075;-70
2024/01/24 04:57:05;;;;;;;20.85;5.93;;;;;;;15.15;60.66;101381.06;5008832;28;97579;-71
2024/01/24 04:59:32;;;;;;;22.83;6.22;;;;;;;15.13;60.93;101396.56;5008439;28;97592;-71
2024/01/24 05:02:15;;;;;;;20.45;5.25;;;;;;;15.11;60.59;101385.88;5008332;28;97501;-71
2024/01/24 05:04:42;;;;;;;15.50;5.03;;;;;;;15.09;60.80;101379.72;5001691;27;97161;-71
2024/01/24 05:07:09;;;;;;;23.77;6.43;;;;;;;15.08;60.39;101390.69;4999993;28;99788;-71
2024/01/24 05:09:36;;;;;;;22.60;5.88;;;;;;;15.08;60.54;101409.63;5005532;28;98647;-71
2024/01/24 05:12:03;;;;;;;24.13;6.57;;;;;;;15.06;60.43;101406.16;5010136;28;97228;-70
2024/01/24 05:14:30;;;;;;;20.02;5.75;;;;;;;15.05;60.50;101408.00;5009543;27;97157;-70
2024/01/24 05:16:57;;;;;;;23.98;6.20;;;;;;;15.04;60.03;101411.69;5001858;28;99428;-71
2024/01/24 05:19:23;;;;;;;23.20;6.47;;;;;;;15.03;60.19;101415.41;5004206;28;97911;-70
2024/01/24 05:21:50;;;;;;;26.55;5.95;;;;;;;15.02;60.04;101413.66;5011221;28;96982;-71
2024/01/24 05:24:17;;;;;;;21.15;7.13;;;;;;;15.03;59.89;101433.47;4996217;28;97086;-70
2024/01/24 05:26:46;;;;;;;27.02;7.20;;;;;;;15.02;59.67;101429.91;5008451;28;98228;-69
2024/01/24 05:29:12;;;;;;;23.30;6.80;;;;;;;15.01;59.53;101414.66;5021337;27;100058;-71
2024/01/24 05:31:40;;;;;;;28.80;7.70;;;;;;;15.00;59.69;101433.72;5005137;28;96907;-70
2024/01/24 05:34:08;;;;;;;22.58;7.68;;;;;;;14.97;59.31;101399.66;5005079;27;97096;-71
2024/01/24 05:36:35;;;;;;;37.30;7.65;;;;;;;14.96;59.54;101419.56;5005611;28;98144;-71
2024/01/24 05:39:06;;;;;;;27.63;6.97;;;;;;;14.95;59.24;101444.91;5001019;28;99932;-71
2024/01/24 05:41:35;;;;;;;22.27;6.60;;;;;;;14.94;59.24;101426.97;5004989;28;97188;-70
2024/01/24 05:44:02;;;;;;;25.65;7.75;;;;;;;14.92;59.05;101455.97;5002903;28;97013;-71
2024/01/24 05:46:30;;;;;;;27.02;7.60;;;;;;;14.90;58.57;101447.13;5008105;28;97998;-71
2024/01/24 05:48:56;;;;;;;26.95;6.63;;;;;;;14.90;59.05;101457.94;5010755;28;97649;-71
2024/01/24 05:51:23;;;;;;;28.63;7.03;;;;;;;14.89;58.75;101457.06;5009367;28;97827;-70
2024/01/24 05:53:50;;;;;;;24.95;7.85;;;;;;;14.89;58.56;101461.63;5010485;28;97094;-70
2024/01/24 05:56:16;;;;;;;31.05;8.80;;;;;;;14.90;58.50;101464.19;4998198;28;100098;-71
2024/01/24 05:58:44;;;;;;;24.55;6.93;;;;;;;14.91;58.63;101527.25;5010224;28;97795;-71
2024/01/24 06:01:11;;;;;;;28.48;8.02;;;;;;;14.90;58.19;101496.66;4991498;28;97755;-71
2024/01/24 06:03:40;;;;;;;25.73;7.28;;;;;;;14.90;58.33;101471.47;5003330;28;97271;-70
2024/01/24 06:06:06;;;;;;;30.40;8.27;;;;;;;14.90;57.82;101498.50;5001808;28;97672;-71
2024/01/24 06:08:34;;;;;;;27.02;7.82;;;;;;;14.89;57.86;101499.47;5010560;28;98215;-71
2024/01/24 06:11:01;;;;;;;28.83;8.02;;;;;;;14.87;57.66;101520.38;5009130;28;97243;-71
2024/01/24 06:13:27;;;;;;;31.35;7.85;;;;;;;14.85;57.78;101506.09;5008385;28;98786;-72
2024/01/24 06:15:54;;;;;;;27.23;7.28;;;;;;;14.84;57.73;101521.44;5003621;28;97702;-70
2024/01/24 06:18:21;;;;;;;25.95;6.88;;;;;;;14.81;57.45;101532.50;5009633;28;97615;-71
2024/01/24 06:20:48;;;;;;;27.00;7.70;;;;;;;14.79;57.28;101525.50;5008151;28;96996;-72
2024/01/24 06:23:15;;;;;;;31.83;9.00;;;;;;;14.76;57.73;101536.53;5006322;28;97073;-71
2024/01/24 06:25:42;;;;;;;21.85;7.20;;;;;;;14.74;57.42;101552.88;5008096;27;97994;-71
2024/01/24 06:28:12;;;;;;;29.73;8.15;;;;;;;14.71;57.61;101550.41;4992986;28;97524;-73
2024/01/24 06:30:40;;;;;;;26.35;7.28;;;;;;;14.67;57.51;101557.03;4993759;28;97159;-71
2024/01/24 06:33:07;;;;;;;40.17;9.93;;;;;;;14.60;57.54;101548.53;4996316;28;96826;-71
2024/01/24 06:35:34;;;;;;;29.92;8.98;;;;;;;14.56;57.56;101562.41;4991852;28;97651;-70
2024/01/24 06:38:01;;;;;;;34.08;8.75;;;;;;;14.51;57.55;101551.09;4993965;28;97757;-71
2024/01/24 06:40:28;;;;;;;31.42;8.23;;;;;;;14.48;57.39;101581.06;4996969;28;97018;-70
2024/01/24 06:42:54;;;;;;;35.50;8.88;;;;;;;14.44;57.65;101557.94;5008275;28;97222;-71
2024/01/24 06:45:21;;;;;;;33.20;7.82;;;;;;;14.40;57.50;101569.94;5029027;27;97782;-71
2024/01/24 06:47:48;;;;;;;48.55;9.70;;;;;;;14.35;57.12;101572.97;5001067;28;98547;-71
2024/01/24 06:50:17;;;;;;;30.10;9.18;;;;;;;14.32;57.18;101593.00;5007131;28;97090;-70
2024/01/24 06:52:44;;;;;;;35.20;8.75;;;;;;;14.31;57.25;101614.72;4993265;28;97609;-71
2024/01/24 06:55:11;;;;;;;31.35;7.68;;;;;;;14.27;57.36;101638.41;4999660;28;97577;-71
2024/01/24 06:57:39;;;;;;;27.23;7.63;;;;;;;14.25;56.92;101617.88;5007995;28;98112;-70
2024/01/24 07:00:08;;;;;;;30.60;8.48;;;;;;;14.22;56.82;101620.81;5002192;28;97141;-72
2024/01/24 07:02:34;;;;;;;38.92;10.90;;;;;;;14.20;57.03;101625.47;4996748;28;96933;-71
2024/01/24 07:05:05;;;;;;;34.35;8.93;;;;;;;14.17;57.04;101631.09;4975832;28;100705;-71
2024/01/24 07:07:32;;;;;;;29.85;9.00;;;;;;;14.14;56.72;101609.72;5006441;28;98056;-72
2024/01/24 07:09:59;;;;;;;36.17;9.57;;;;;;;14.13;56.59;101626.88;4987317;28;98111;-71
2024/01/24 07:12:26;;;;;;;30.55;8.18;;;;;;;14.10;56.63;101608.19;4995678;28;96851;-71
2024/01/24 07:14:53;;;;;;;40.00;11.40;;;;;;;14.09;56.48;101636.16;4996716;28;97674;-71
2024/01/24 07:17:20;;;;;;;35.33;9.00;;;;;;;14.05;56.59;101634.66;4998425;28;97406;-70
2024/01/24 07:19:47;;;;;;;31.77;8.50;;;;;;;14.03;56.23;101636.59;5010266;28;98020;-70
2024/01/24 07:22:15;;;;;;;29.02;9.50;;;;;;;14.00;56.09;101627.75;5005337;28;97134;-71
2024/01/24 07:24:44;;;;;;;35.33;9.00;;;;;;;13.98;55.96;101655.84;4987396;28;98340;-70
2024/01/24 07:27:11;;;;;;;34.28;9.48;;;;;;;13.95;55.73;101620.97;4993338;28;97494;-71
2024/01/24 07:29:38;;;;;;;26.98;8.65;;;;;;;13.93;56.10;101623.78;5004881;27;97136;-70
2024/01/24 07:32:05;;;;;;;32.38;9.48;;;;;;;13.93;56.03;101639.13;4992680;28;97264;-70
2024/01/24 07:34:32;;;;;;;31.15;9.02;;;;;;;13.91;55.85;101644.63;4997418;28;98613;-71
2024/01/24 07:36:59;;;;;;;31.90;8.18;;;;;;;13.90;55.61;101680.72;4977404;28;98045;-71
2024/01/24 07:39:28;;;;;;;37.92;11.00;;;;;;;13.89;55.43;101691.63;4994268;28;97777;-70
2024/01/24 07:41:55;;;;;;;38.13;9.48;;;;;;;13.87;55.35;101667.44;4997006;28;97079;-70
2024/01/24 07:44:22;;;;;;;37.60;9.05;;;;;;;13.86;55.74;101667.53;4999168;28;97743;-70
2024/01/24 07:46:49;;;;;;;35.45;8.75;;;;;;;13.84;55.44;101685.69;5000675;28;100245;-71
2024/01/24 07:49:17;;;;;;;37.25;9.65;;;;;;;13.82;55.54;101672.28;5000270;28;97194;-70
2024/01/24 07:51:46;;;;;;;39.40;9.65;;;;;;;13.81;55.32;101691.31;4991429;28;97103;-70
2024/01/24 07:54:19;;;;;;;32.53;10.07;;;;;;;13.80;55.13;101720.13;4999578;28;98101;-71
2024/01/24 07:56:46;;;;;;;32.75;9.20;;;;;;;13.80;54.87;101714.75;4992416;28;97882;-71
2024/01/24 07:59:16;;;;;;;34.83;9.13;;;;;;;13.79;55.04;101728.34;5001687;28;97435;-70
2024/01/24 08:01:47;;;;;;;35.60;8.63;;;;;;;13.76;54.94;101721.31;4998794;28;97577;-70
2024/01/24 08:04:15;;;;;;;34.92;8.70;;;;;;;13.75;54.75;101751.13;5038916;27;100518;-70
2024/01/24 08:06:45;;;;;;;46.22;8.93;;;;;;;13.72;54.78;101730.63;5006689;28;97768;-69
2024/01/24 08:09:13;;;;;;;33.85;9.35;;;;;;;13.71;54.78;101741.53;5008299;27;97217;-69
2024/01/24 08:11:41;;;;;;;29.65;7.85;;;;;;;13.70;54.79;101735.25;5000717;28;97140;-69
2024/01/24 08:14:08;;;;;;;36.75;8.82;;;;;;;13.70;54.50;101740.66;5012477;28;98206;-69
2024/01/24 08:16:35;;;;;;;29.25;8.02;;;;;;;13.71;54.67;101733.41;5000480;28;98090;-69
2024/01/24 08:19:02;;;;;;;34.78;8.95;;;;;;;13.70;54.29;101716.38;5001647;28;97611;-69
2024/01/24 08:21:30;;;;;;;35.97;9.63;;;;;;;13.70;54.43;101729.00;4999537;28;96928;-69
2024/01/24 08:23:57;;;;;;;36.30;10.05;;;;;;;13.67;54.52;101733.63;5001281;28;97820;-69
2024/01/24 08:26:23;;;;;;;33.20;10.18;;;;;;;13.67;54.52;101760.63;5003577;28;98692;-70
2024/01/24 08:28:52;;;;;;;37.25;8.25;;;;;;;13.66;54.50;101737.31;5005233;28;97254;-70
2024/01/24 08:31:19;;;;;;;35.97;9.05;;;;;;;13.66;53.96;101758.91;5004243;28;97662;-70
2024/01/24 08:33:45;;;;;;;35.65;9.13;;;;;;;13.66;53.92;101736.44;4996598;28;97655;-69
2024/01/24 08:36:18;;;;;;;38.42;9.32;;;;;;;13.67;54.13;101735.47;4998070;28;97239;-69
2024/01/24 08:38:45;;;;;;;39.42;8.68;;;;;;;13.66;54.09;101764.31;4997621;28;97053;-69
2024/01/24 08:41:12;;;;;;;33.65;9.27;;;;;;;13.65;54.11;101773.38;4996742;28;97252;-69
2024/01/24 08:43:39;;;;;;;32.85;9.77;;;;;;;13.67;53.73;101786.75;4995510;28;97763;-70
2024/01/24 08:46:06;;;;;;;31.77;7.68;;;;;;;13.67;53.67;101770.56;4997350;28;98222;-70
2024/01/24 08:48:32;;;;;;;32.33;8.70;;;;;;;13.68;53.52;101799.28;5002550;28;97183;-71
2024/01/24 08:50:59;;;;;;;33.00;9.27;;;;;;;13.69;53.56;101787.53;4988835;28;96996;-71
2024/01/24 08:53:26;;;;;;;30.52;7.82;;;;;;;13.70;53.47;101785.69;4983432;27;97881;-70
2024/01/24 08:55:54;;;;;;;40.40;8.95;;;;;;;13.72;53.88;101790.00;4996564;28;97866;-71
2024/01/24 08:58:21;;;;;;;36.78;9.20;;;;;;;13.74;53.66;101752.97;5001374;28;96776;-70
2024/01/24 09:00:50;;;;;;;35.22;9.65;;;;;;;13.75;53.65;101808.69;5002659;28;97265;-70
2024/01/24 09:03:18;;;;;;;34.78;8.98;;;;;;;13.77;53.52;101782.44;5000450;28;100016;-71
2024/01/24 09:05:46;;;;;;;28.08;8.60;;;;;;;13.78;53.63;101805.78;4999861;28;97817;-72
2024/01/24 09:08:12;;;;;;;29.13;8.45;;;;;;;13.79;53.12;101841.75;5004863;28;97299;-70
2024/01/24 09:10:39;;;;;;;36.88;8.85;;;;;;;13.80;53.45;101859.66;5008078;28;97254;-71
2024/01/24 09:13:06;;;;;;;33.28;8.35;;;;;;;13.80;53.42;101863.25;5000225;28;98452;-71
2024/01/24 09:15:33;;;;;;;32.13;9.32;;;;;;;13.80;53.38;101836.25;4990625;28;98700;-70
2024/01/24 09:18:01;;;;;;;31.40;8.80;;;;;;;13.81;53.29;101853.31;5010375;28;97276;-71
2024/01/24 09:20:28;;;;;;;40.38;9.38;;;;;;;13.80;53.25;101841.63;5003701;28;97123;-71
2024/01/24 09:22:55;;;;;;;36.55;10.38;;;;;;;13.84;53.06;101847.69;4991016;28;98234;-71
2024/01/24 09:25:22;;;;;;;28.30;8.52;;;;;;;13.85;53.18;101868.31;5003109;28;97555;-72
2024/01/24 09:27:48;;;;;;;38.25;8.38;;;;;;;13.86;53.27;101883.56;5005477;28;97458;-70
2024/01/24 09:30:15;;;;;;;31.90;8.82;;;;;;;13.86;53.27;101888.94;4998518;28;97776;-70
2024/01/24 09:32:42;;;;;;;30.63;7.95;;;;;;;13.86;52.99;101900.63;5004146;28;97531;-72
2024/01/24 09:35:09;;;;;;;33.55;8.90;;;;;;;13.85;52.96;101915.09;5009204;28;99935;-70
2024/01/24 09:37:36;;;;;;;36.20;9.70;;;;;;;13.85;52.98;101908.81;5010663;28;96953;-72
2024/01/24 09:40:05;;;;;;;34.55;8.27;;;;;;;13.86;53.27;101913.25;5002285;28;97573;-70
2024/01/24 09:42:40;;;;;;;40.55;9.23;;;;;;;13.85;52.87;101915.09;5004548;28;98618;-71
2024/01/24 09:45:08;;;;;;;38.37;8.87;;;;;;;13.86;52.79;101895.22;4998098;28;97549;-71
2024/01/24 09:47:35;;;;;;;29.70;9.40;;;;;;;13.87;52.84;101896.94;4997524;28;97405;-69
2024/01/24 09:50:04;;;;;;;27.45;8.48;;;;;;;13.86;52.64;101911.41;5002294;28;97710;-70
2024/01/24 09:52:35;;;;;;;32.75;8.63;;;;;;;13.88;53.17;101914.00;4992529;28;97547;-72
2024/01/24 09:55:04;;;;;;;33.38;10.18;;;;;;;13.88;53.13;101925.69;4994671;28;98002;-70
2024/01/24 09:57:33;;;;;;;29.23;7.65;;;;;;;13.90;52.82;101948.03;4993593;28;96869;-72
2024/01/24 10:00:00;;;;;;;28.38;8.63;;;;;;;13.91;52.55;101932.72;5004047;27;97328;-71
2024/01/24 10:02:27;;;;;;;36.83;9.90;;;;;;;13.92;52.50;101927.22;4989371;28;97693;-70
2024/01/24 10:04:58;;;;;;;34.60;8.95;;;;;;;13.95;52.65;101927.00;4986756;28;98024;-71
2024/01/24 10:07:26;;;;;;;31.50;8.63;;;;;;;13.99;52.61;101943.84;5002082;28;98578;-70
2024/01/24 10:10:09;;;;;;;30.38;9.77;;;;;;;13.99;52.69;101930.34;4992575;28;97052;-71
2024/01/24 10:12:36;;;;;;;33.38;8.43;;;;;;;14.02;52.53;101940.94;4987316;28;98619;-71
2024/01/24 10:15:03;;;;;;;31.58;8.40;;;;;;;14.04;52.69;101941.72;4996410;28;97816;-71
2024/01/24 10:17:30;;;;;;;32.22;9.63;;;;;;;14.05;52.44;101951.53;5005711;28;96967;-71
2024/01/24 10:19:58;;;;;;;31.27;9.50;;;;;;;14.06;52.47;101958.69;5006410;28;97346;-71
2024/01/24 10:22:26;;;;;;;32.15;8.95;;;;;;;14.10;52.59;101965.59;4992109;28;98194;-71
2024/01/24 10:24:56;;;;;;;33.92;8.63;;;;;;;14.12;52.68;101989.81;4991452;28;98007;-70
2024/01/24 10:27:23;;;;;;;38.85;9.40;;;;;;;14.14;52.20;102002.28;4991756;28;97257;-70
2024/01/24 10:29:53;;;;;;;29.70;7.47;;;;;;;14.15;52.55;101987.78;4988729;28;97806;-71
2024/01/24 10:32:20;;;;;;;32.15;8.63;;;;;;;14.17;52.52;101971.47;4997745;28;97513;-70
2024/01/24 10:34:49;;;;;;;27.77;8.43;;;;;;;14.20;52.52;102001.00;5001046;28;100072;-70
2024/01/24 10:37:18;;;;;;;36.35;9.25;;;;;;;14.21;52.11;101998.19;5007946;28;97391;-71
2024/01/24 10:39:50;;;;;;;36.35;9.48;;;;;;;14.23;52.25;102011.59;5000363;28;97401;-70
2024/01/24 10:42:18;;;;;;;32.55;8.98;;;;;;;14.22;52.43;102008.03;4998063;27;97724;-71
2024/01/24 10:44:49;;;;;;;32.70;8.60;;;;;;;14.23;52.17;102007.06;5008961;28;98079;-72
2024/01/24 10:47:17;;;;;;;34.88;8.90;;;;;;;14.21;52.05;101990.09;4999817;28;96935;-70
2024/01/24 10:49:46;;;;;;;31.65;8.23;;;;;;;14.22;52.30;102009.88;5005642;28;96992;-71
2024/01/24 10:52:15;;;;;;;31.42;8.70;;;;;;;14.22;51.89;102015.25;4999556;28;97806;-71
2024/01/24 10:54:44;;;;;;;33.03;9.57;;;;;;;14.21;51.97;102013.53;4990938;28;98009;-70
2024/01/24 10:57:14;;;;;;;29.35;9.88;;;;;;;14.22;52.17;102048.56;5007706;28;96850;-70
2024/01/24 10:59:44;;;;;;;24.75;7.68;;;;;;;14.22;52.15;102037.75;5002298;28;97455;-70
2024/01/24 11:02:11;;;;;;;35.70;8.73;;;;;;;14.22;52.01;102026.94;4991543;28;99532;-71
2024/01/24 11:04:39;;;;;;;31.30;8.75;;;;;;;14.21;51.97;102044.13;5009051;28;98048;-70
2024/01/24 11:07:11;;;;;;;24.95;8.00;;;;;;;14.19;51.75;102031.69;5003147;28;97217;-71
2024/01/24 11:10:08;;;;;;;35.95;8.52;;;;;;;14.18;51.90;102046.16;5003419;28;97769;-71
2024/01/24 11:12:36;;;;;;;25.63;7.82;;;;;;;14.20;51.69;102036.13;5002710;28;97560;-70
2024/01/24 11:15:08;;;;;;;29.23;7.72;;;;;;;14.20;52.11;102038.81;5004248;28;97898;-70
2024/01/24 11:17:35;;;;;;;35.15;9.30;;;;;;;14.19;52.19;102047.91;5008956;28;96840;-71
2024/01/24 11:20:06;;;;;;;28.85;8.80;;;;;;;14.18;51.79;102054.28;5002029;28;97962;-71
2024/01/24 11:22:35;;;;;;;34.58;8.45;;;;;;;14.18;51.97;102056.97;5007689;28;97794;-70